sensor_id;sensor_type;location;lat;lon;timestamp;P1;durP1;ratioP1;P2;durP2;ratioP2
16813;SDS011;8524;57.650;11.926;2022-09-09T00:02:04;1.53;;;1.00;;
16813;SDS011;8524;57.650;11.926;2022-09-09T00:04:42;1.83;;;1.13;;
16813;SDS011;8524;57.650;11.926;2022-09-09T00:07:20;1.10;;;1.00;;
16813;SDS011;8524;57.650;11.926;2022-09-09T00:09:58;2.03;;;1.10;;
16813;SDS011;8524;57.650;11.926;2022-09-09T00:12:36;0.97;;;0.93;;
16813;SDS011;8524;57.650;11.926;2022-09-09T00:15:11;1.83;;;1.13;;
16813;SDS011;8524;57.650;11.926;2022-09-09T00:17:43;1.00;;;1.00;;
16813;SDS011;8524;57.650;11.926;2022-09-09T00:20:14;1.63;;;1.10;;
16813;SDS011;8524;57.650;11.926;2022-09-09T00:22:47;1.20;;;1.10;;
16813;SDS011;8524;57.650;11.926;2022-09-09T00:25:34;6.20;;;1.40;;
16813;SDS011;8524;57.650;11.926;2022-09-09T00:28:09;1.73;;;1.20;;
16813;SDS011;8524;57.650;11.926;2022-09-09T00:30:44;1.37;;;1.17;;
16813;SDS011;8524;57.650;11.926;2022-09-09T00:33:15;2.40;;;1.10;;
16813;SDS011;8524;57.650;11.926;2022-09-09T00:35:48;1.90;;;0.90;;
16813;SDS011;8524;57.650;11.926;2022-09-09T00:38:17;1.30;;;1.17;;
16813;SDS011;8524;57.650;11.926;2022-09-09T00:40:50;1.60;;;1.43;;
16813;SDS011;8524;57.650;11.926;2022-09-09T00:43:29;2.03;;;1.13;;
16813;SDS011;8524;57.650;11.926;2022-09-09T00:46:14;1.20;;;1.10;;
16813;SDS011;8524;57.650;11.926;2022-09-09T00:49:09;1.13;;;1.10;;
16813;SDS011;8524;57.650;11.926;2022-09-09T00:51:49;1.83;;;1.10;;
16813;SDS011;8524;57.650;11.926;2022-09-09T00:54:31;2.40;;;1.20;;
16813;SDS011;8524;57.650;11.926;2022-09-09T00:57:07;1.50;;;1.30;;
16813;SDS011;8524;57.650;11.926;2022-09-09T00:59:43;1.27;;;1.03;;
16813;SDS011;8524;57.650;11.926;2022-09-09T01:02:16;1.10;;;1.10;;
16813;SDS011;8524;57.650;11.926;2022-09-09T01:04:53;2.63;;;1.30;;
16813;SDS011;8524;57.650;11.926;2022-09-09T01:07:20;1.07;;;0.90;;
16813;SDS011;8524;57.650;11.926;2022-09-09T01:09:51;1.10;;;1.10;;
16813;SDS011;8524;57.650;11.926;2022-09-09T01:12:25;1.20;;;1.10;;
16813;SDS011;8524;57.650;11.926;2022-09-09T01:15:01;1.73;;;1.20;;
16813;SDS011;8524;57.650;11.926;2022-09-09T01:17:36;1.83;;;1.10;;
16813;SDS011;8524;57.650;11.926;2022-09-09T01:20:15;2.97;;;1.40;;
16813;SDS011;8524;57.650;11.926;2022-09-09T01:22:50;1.40;;;1.30;;
16813;SDS011;8524;57.650;11.926;2022-09-09T01:25:29;2.60;;;1.10;;
16813;SDS011;8524;57.650;11.926;2022-09-09T01:28:19;1.93;;;1.20;;
16813;SDS011;8524;57.650;11.926;2022-09-09T01:30:51;1.30;;;1.10;;
16813;SDS011;8524;57.650;11.926;2022-09-09T01:33:18;2.07;;;1.40;;
16813;SDS011;8524;57.650;11.926;2022-09-09T01:35:46;1.47;;;1.30;;
16813;SDS011;8524;57.650;11.926;2022-09-09T01:38:19;1.80;;;1.20;;
16813;SDS011;8524;57.650;11.926;2022-09-09T01:40:47;2.20;;;1.20;;
16813;SDS011;8524;57.650;11.926;2022-09-09T01:43:18;1.40;;;1.30;;
16813;SDS011;8524;57.650;11.926;2022-09-09T01:45:46;1.40;;;1.30;;
16813;SDS011;8524;57.650;11.926;2022-09-09T01:48:17;1.40;;;1.30;;
16813;SDS011;8524;57.650;11.926;2022-09-09T01:50:45;1.27;;;1.20;;
16813;SDS011;8524;57.650;11.926;2022-09-09T01:53:12;1.60;;;1.30;;
16813;SDS011;8524;57.650;11.926;2022-09-09T01:55:41;4.00;;;1.50;;
16813;SDS011;8524;57.650;11.926;2022-09-09T01:58:17;1.97;;;1.37;;
16813;SDS011;8524;57.650;11.926;2022-09-09T02:00:55;2.07;;;1.20;;
16813;SDS011;8524;57.650;11.926;2022-09-09T02:03:27;2.07;;;1.53;;
16813;SDS011;8524;57.650;11.926;2022-09-09T02:05:56;2.30;;;1.30;;
16813;SDS011;8524;57.650;11.926;2022-09-09T02:08:33;1.40;;;1.30;;
16813;SDS011;8524;57.650;11.926;2022-09-09T02:11:06;2.83;;;1.50;;
16813;SDS011;8524;57.650;11.926;2022-09-09T02:13:39;1.40;;;1.30;;
16813;SDS011;8524;57.650;11.926;2022-09-09T02:16:10;1.30;;;1.20;;
16813;SDS011;8524;57.650;11.926;2022-09-09T02:18:44;1.40;;;1.30;;
16813;SDS011;8524;57.650;11.926;2022-09-09T02:21:14;1.50;;;1.40;;
16813;SDS011;8524;57.650;11.926;2022-09-09T02:23:43;1.30;;;1.20;;
16813;SDS011;8524;57.650;11.926;2022-09-09T02:26:13;1.77;;;1.40;;
16813;SDS011;8524;57.650;11.926;2022-09-09T02:28:46;2.90;;;1.00;;
16813;SDS011;8524;57.650;11.926;2022-09-09T02:31:17;1.50;;;1.30;;
16813;SDS011;8524;57.650;11.926;2022-09-09T02:33:46;1.40;;;1.30;;
16813;SDS011;8524;57.650;11.926;2022-09-09T02:36:17;1.87;;;1.30;;
16813;SDS011;8524;57.650;11.926;2022-09-09T02:38:46;2.00;;;1.30;;
16813;SDS011;8524;57.650;11.926;2022-09-09T02:41:18;3.63;;;1.57;;
16813;SDS011;8524;57.650;11.926;2022-09-09T02:43:49;1.40;;;1.30;;
16813;SDS011;8524;57.650;11.926;2022-09-09T02:46:22;2.00;;;1.42;;
16813;SDS011;8524;57.650;11.926;2022-09-09T02:48:58;1.50;;;1.40;;
16813;SDS011;8524;57.650;11.926;2022-09-09T02:51:29;2.40;;;1.43;;
16813;SDS011;8524;57.650;11.926;2022-09-09T02:54:04;1.97;;;1.10;;
16813;SDS011;8524;57.650;11.926;2022-09-09T02:56:39;3.00;;;1.50;;
16813;SDS011;8524;57.650;11.926;2022-09-09T02:59:13;1.33;;;1.23;;
16813;SDS011;8524;57.650;11.926;2022-09-09T03:01:41;1.40;;;1.30;;
16813;SDS011;8524;57.650;11.926;2022-09-09T03:04:09;1.57;;;1.30;;
16813;SDS011;8524;57.650;11.926;2022-09-09T03:06:36;2.67;;;1.17;;
16813;SDS011;8524;57.650;11.926;2022-09-09T03:09:02;2.00;;;1.20;;
16813;SDS011;8524;57.650;11.926;2022-09-09T03:11:29;1.90;;;1.10;;
16813;SDS011;8524;57.650;11.926;2022-09-09T03:13:57;2.60;;;1.50;;
16813;SDS011;8524;57.650;11.926;2022-09-09T03:16:25;1.70;;;1.60;;
16813;SDS011;8524;57.650;11.926;2022-09-09T03:18:52;2.40;;;1.40;;
16813;SDS011;8524;57.650;11.926;2022-09-09T03:21:19;2.27;;;1.60;;
16813;SDS011;8524;57.650;11.926;2022-09-09T03:23:46;2.03;;;1.30;;
16813;SDS011;8524;57.650;11.926;2022-09-09T03:26:13;3.00;;;1.43;;
16813;SDS011;8524;57.650;11.926;2022-09-09T03:28:40;2.07;;;1.37;;
16813;SDS011;8524;57.650;11.926;2022-09-09T03:31:08;2.13;;;1.43;;
16813;SDS011;8524;57.650;11.926;2022-09-09T03:33:36;2.27;;;1.60;;
16813;SDS011;8524;57.650;11.926;2022-09-09T03:36:04;1.73;;;1.63;;
16813;SDS011;8524;57.650;11.926;2022-09-09T03:38:32;1.90;;;1.30;;
16813;SDS011;8524;57.650;11.926;2022-09-09T03:41:00;1.57;;;1.47;;
16813;SDS011;8524;57.650;11.926;2022-09-09T03:43:27;1.60;;;1.50;;
16813;SDS011;8524;57.650;11.926;2022-09-09T03:45:55;1.57;;;1.40;;
16813;SDS011;8524;57.650;11.926;2022-09-09T03:48:23;1.20;;;1.20;;
16813;SDS011;8524;57.650;11.926;2022-09-09T03:50:52;3.70;;;1.67;;
16813;SDS011;8524;57.650;11.926;2022-09-09T03:53:21;2.43;;;1.67;;
16813;SDS011;8524;57.650;11.926;2022-09-09T03:55:50;3.23;;;1.73;;
16813;SDS011;8524;57.650;11.926;2022-09-09T03:58:19;2.03;;;1.63;;
16813;SDS011;8524;57.650;11.926;2022-09-09T04:00:58;1.50;;;1.40;;
16813;SDS011;8524;57.650;11.926;2022-09-09T04:03:28;1.47;;;1.30;;
16813;SDS011;8524;57.650;11.926;2022-09-09T04:05:57;3.10;;;1.40;;
16813;SDS011;8524;57.650;11.926;2022-09-09T04:08:25;2.03;;;1.60;;
16813;SDS011;8524;57.650;11.926;2022-09-09T04:10:53;3.33;;;1.50;;
16813;SDS011;8524;57.650;11.926;2022-09-09T04:13:23;2.10;;;1.30;;
16813;SDS011;8524;57.650;11.926;2022-09-09T04:15:51;2.27;;;1.30;;
16813;SDS011;8524;57.650;11.926;2022-09-09T04:18:19;1.97;;;1.33;;
16813;SDS011;8524;57.650;11.926;2022-09-09T04:20:47;4.13;;;1.50;;
16813;SDS011;8524;57.650;11.926;2022-09-09T04:23:16;2.73;;;1.50;;
16813;SDS011;8524;57.650;11.926;2022-09-09T04:25:44;1.77;;;1.53;;
16813;SDS011;8524;57.650;11.926;2022-09-09T04:28:11;1.40;;;1.30;;
16813;SDS011;8524;57.650;11.926;2022-09-09T04:30:38;1.70;;;1.30;;
16813;SDS011;8524;57.650;11.926;2022-09-09T04:33:05;3.10;;;1.50;;
16813;SDS011;8524;57.650;11.926;2022-09-09T04:35:33;1.47;;;1.33;;
16813;SDS011;8524;57.650;11.926;2022-09-09T04:38:00;2.70;;;1.60;;
16813;SDS011;8524;57.650;11.926;2022-09-09T04:40:30;2.30;;;1.67;;
16813;SDS011;8524;57.650;11.926;2022-09-09T04:42:58;1.67;;;1.40;;
16813;SDS011;8524;57.650;11.926;2022-09-09T04:45:25;2.07;;;1.50;;
16813;SDS011;8524;57.650;11.926;2022-09-09T04:47:53;2.40;;;1.80;;
16813;SDS011;8524;57.650;11.926;2022-09-09T04:50:20;1.73;;;1.43;;
16813;SDS011;8524;57.650;11.926;2022-09-09T04:52:47;1.80;;;1.30;;
16813;SDS011;8524;57.650;11.926;2022-09-09T04:55:14;2.80;;;1.57;;
16813;SDS011;8524;57.650;11.926;2022-09-09T04:57:42;3.90;;;1.60;;
16813;SDS011;8524;57.650;11.926;2022-09-09T05:00:10;2.13;;;1.63;;
16813;SDS011;8524;57.650;11.926;2022-09-09T05:02:38;3.20;;;1.47;;
16813;SDS011;8524;57.650;11.926;2022-09-09T05:05:07;2.33;;;1.80;;
16813;SDS011;8524;57.650;11.926;2022-09-09T05:07:36;2.03;;;1.50;;
16813;SDS011;8524;57.650;11.926;2022-09-09T05:10:03;2.87;;;1.60;;
16813;SDS011;8524;57.650;11.926;2022-09-09T05:12:31;3.27;;;1.40;;
16813;SDS011;8524;57.650;11.926;2022-09-09T05:14:59;2.73;;;1.40;;
16813;SDS011;8524;57.650;11.926;2022-09-09T05:17:26;2.97;;;1.50;;
16813;SDS011;8524;57.650;11.926;2022-09-09T05:19:53;2.57;;;1.67;;
16813;SDS011;8524;57.650;11.926;2022-09-09T05:22:20;1.93;;;1.40;;
16813;SDS011;8524;57.650;11.926;2022-09-09T05:24:48;2.37;;;1.50;;
16813;SDS011;8524;57.650;11.926;2022-09-09T05:27:16;2.60;;;1.60;;
16813;SDS011;8524;57.650;11.926;2022-09-09T05:29:44;2.60;;;1.33;;
16813;SDS011;8524;57.650;11.926;2022-09-09T05:32:13;3.10;;;1.50;;
16813;SDS011;8524;57.650;11.926;2022-09-09T05:34:40;2.67;;;1.50;;
16813;SDS011;8524;57.650;11.926;2022-09-09T05:37:07;2.37;;;1.63;;
16813;SDS011;8524;57.650;11.926;2022-09-09T05:39:35;3.03;;;1.50;;
16813;SDS011;8524;57.650;11.926;2022-09-09T05:42:03;4.53;;;1.53;;
16813;SDS011;8524;57.650;11.926;2022-09-09T05:44:30;1.90;;;1.47;;
16813;SDS011;8524;57.650;11.926;2022-09-09T05:46:57;1.67;;;1.57;;
16813;SDS011;8524;57.650;11.926;2022-09-09T05:49:25;3.77;;;1.57;;
16813;SDS011;8524;57.650;11.926;2022-09-09T05:51:53;1.87;;;1.70;;
16813;SDS011;8524;57.650;11.926;2022-09-09T05:54:20;3.27;;;1.60;;
16813;SDS011;8524;57.650;11.926;2022-09-09T05:56:47;1.50;;;1.40;;
16813;SDS011;8524;57.650;11.926;2022-09-09T05:59:16;2.00;;;1.60;;
16813;SDS011;8524;57.650;11.926;2022-09-09T06:01:43;4.80;;;1.63;;
16813;SDS011;8524;57.650;11.926;2022-09-09T06:04:10;2.67;;;2.03;;
16813;SDS011;8524;57.650;11.926;2022-09-09T06:06:39;3.47;;;1.70;;
16813;SDS011;8524;57.650;11.926;2022-09-09T06:09:09;3.00;;;1.40;;
16813;SDS011;8524;57.650;11.926;2022-09-09T06:11:38;2.17;;;1.90;;
16813;SDS011;8524;57.650;11.926;2022-09-09T06:14:06;3.50;;;1.83;;
16813;SDS011;8524;57.650;11.926;2022-09-09T06:16:34;3.30;;;1.80;;
16813;SDS011;8524;57.650;11.926;2022-09-09T06:19:02;4.73;;;1.73;;
16813;SDS011;8524;57.650;11.926;2022-09-09T06:21:30;5.87;;;1.90;;
16813;SDS011;8524;57.650;11.926;2022-09-09T06:24:01;4.77;;;1.73;;
16813;SDS011;8524;57.650;11.926;2022-09-09T06:26:29;3.57;;;2.10;;
16813;SDS011;8524;57.650;11.926;2022-09-09T06:28:58;2.30;;;2.10;;
16813;SDS011;8524;57.650;11.926;2022-09-09T06:31:26;2.73;;;1.90;;
16813;SDS011;8524;57.650;11.926;2022-09-09T06:33:55;3.07;;;1.97;;
16813;SDS011;8524;57.650;11.926;2022-09-09T06:36:23;3.13;;;1.93;;
16813;SDS011;8524;57.650;11.926;2022-09-09T06:38:52;4.37;;;2.00;;
16813;SDS011;8524;57.650;11.926;2022-09-09T06:41:27;2.27;;;1.63;;
16813;SDS011;8524;57.650;11.926;2022-09-09T06:44:05;1.70;;;1.60;;
16813;SDS011;8524;57.650;11.926;2022-09-09T06:46:32;2.53;;;1.70;;
16813;SDS011;8524;57.650;11.926;2022-09-09T06:49:12;4.03;;;2.03;;
16813;SDS011;8524;57.650;11.926;2022-09-09T06:51:54;2.13;;;1.83;;
16813;SDS011;8524;57.650;11.926;2022-09-09T06:54:21;2.63;;;1.53;;
16813;SDS011;8524;57.650;11.926;2022-09-09T06:56:50;4.57;;;1.87;;
16813;SDS011;8524;57.650;11.926;2022-09-09T06:59:17;2.13;;;1.70;;
16813;SDS011;8524;57.650;11.926;2022-09-09T07:02:04;3.10;;;1.87;;
16813;SDS011;8524;57.650;11.926;2022-09-09T07:04:36;2.87;;;1.70;;
16813;SDS011;8524;57.650;11.926;2022-09-09T07:07:04;2.20;;;1.50;;
16813;SDS011;8524;57.650;11.926;2022-09-09T07:09:40;4.00;;;1.90;;
16813;SDS011;8524;57.650;11.926;2022-09-09T07:12:11;2.03;;;1.60;;
16813;SDS011;8524;57.650;11.926;2022-09-09T07:14:39;4.47;;;1.90;;
16813;SDS011;8524;57.650;11.926;2022-09-09T07:17:06;4.57;;;1.97;;
16813;SDS011;8524;57.650;11.926;2022-09-09T07:19:33;3.57;;;2.07;;
16813;SDS011;8524;57.650;11.926;2022-09-09T07:22:01;2.87;;;1.80;;
16813;SDS011;8524;57.650;11.926;2022-09-09T07:24:28;2.47;;;1.70;;
16813;SDS011;8524;57.650;11.926;2022-09-09T07:26:55;3.93;;;2.10;;
16813;SDS011;8524;57.650;11.926;2022-09-09T07:29:24;4.80;;;2.00;;
16813;SDS011;8524;57.650;11.926;2022-09-09T07:31:51;3.67;;;1.90;;
16813;SDS011;8524;57.650;11.926;2022-09-09T07:34:18;3.17;;;1.80;;
16813;SDS011;8524;57.650;11.926;2022-09-09T07:36:46;4.07;;;2.00;;
16813;SDS011;8524;57.650;11.926;2022-09-09T07:39:13;4.53;;;1.87;;
16813;SDS011;8524;57.650;11.926;2022-09-09T07:41:43;6.93;;;2.30;;
16813;SDS011;8524;57.650;11.926;2022-09-09T07:44:12;4.73;;;2.47;;
16813;SDS011;8524;57.650;11.926;2022-09-09T07:46:43;4.37;;;1.90;;
16813;SDS011;8524;57.650;11.926;2022-09-09T07:49:11;3.30;;;1.87;;
16813;SDS011;8524;57.650;11.926;2022-09-09T07:51:39;5.57;;;1.90;;
16813;SDS011;8524;57.650;11.926;2022-09-09T07:54:08;6.33;;;1.83;;
16813;SDS011;8524;57.650;11.926;2022-09-09T07:56:37;5.50;;;2.17;;
16813;SDS011;8524;57.650;11.926;2022-09-09T07:59:05;4.33;;;2.07;;
16813;SDS011;8524;57.650;11.926;2022-09-09T08:01:33;3.43;;;1.90;;
16813;SDS011;8524;57.650;11.926;2022-09-09T08:04:05;3.30;;;1.80;;
16813;SDS011;8524;57.650;11.926;2022-09-09T08:06:34;3.10;;;1.93;;
16813;SDS011;8524;57.650;11.926;2022-09-09T08:09:07;3.63;;;1.80;;
16813;SDS011;8524;57.650;11.926;2022-09-09T08:11:35;3.53;;;1.90;;
16813;SDS011;8524;57.650;11.926;2022-09-09T08:14:03;5.77;;;2.50;;
16813;SDS011;8524;57.650;11.926;2022-09-09T08:16:31;3.87;;;2.00;;
16813;SDS011;8524;57.650;11.926;2022-09-09T08:19:01;4.33;;;1.93;;
16813;SDS011;8524;57.650;11.926;2022-09-09T08:21:33;4.43;;;1.90;;
16813;SDS011;8524;57.650;11.926;2022-09-09T08:24:01;5.80;;;2.00;;
16813;SDS011;8524;57.650;11.926;2022-09-09T08:26:30;3.50;;;1.83;;
16813;SDS011;8524;57.650;11.926;2022-09-09T08:28:59;3.80;;;2.00;;
16813;SDS011;8524;57.650;11.926;2022-09-09T08:31:28;2.10;;;1.90;;
16813;SDS011;8524;57.650;11.926;2022-09-09T08:33:56;4.30;;;1.90;;
16813;SDS011;8524;57.650;11.926;2022-09-09T08:36:26;2.03;;;1.80;;
16813;SDS011;8524;57.650;11.926;2022-09-09T08:38:57;3.47;;;2.23;;
16813;SDS011;8524;57.650;11.926;2022-09-09T08:44:38;2.03;;;1.87;;
16813;SDS011;8524;57.650;11.926;2022-09-09T08:47:19;3.23;;;1.90;;
16813;SDS011;8524;57.650;11.926;2022-09-09T08:50:00;4.83;;;2.03;;
16813;SDS011;8524;57.650;11.926;2022-09-09T08:52:39;2.00;;;1.67;;
16813;SDS011;8524;57.650;11.926;2022-09-09T08:55:20;2.53;;;2.00;;
16813;SDS011;8524;57.650;11.926;2022-09-09T09:00:19;4.57;;;1.90;;
16813;SDS011;8524;57.650;11.926;2022-09-09T09:02:48;3.03;;;1.80;;
16813;SDS011;8524;57.650;11.926;2022-09-09T09:05:29;3.93;;;1.73;;
16813;SDS011;8524;57.650;11.926;2022-09-09T09:08:03;2.63;;;1.80;;
16813;SDS011;8524;57.650;11.926;2022-09-09T09:10:42;2.87;;;1.97;;
16813;SDS011;8524;57.650;11.926;2022-09-09T09:13:14;3.77;;;1.80;;
16813;SDS011;8524;57.650;11.926;2022-09-09T09:15:46;5.27;;;2.10;;
16813;SDS011;8524;57.650;11.926;2022-09-09T09:18:19;3.03;;;2.03;;
16813;SDS011;8524;57.650;11.926;2022-09-09T09:20:49;2.63;;;2.00;;
16813;SDS011;8524;57.650;11.926;2022-09-09T09:23:26;3.20;;;1.97;;
16813;SDS011;8524;57.650;11.926;2022-09-09T09:26:01;2.63;;;1.97;;
16813;SDS011;8524;57.650;11.926;2022-09-09T09:28:33;3.83;;;1.93;;
16813;SDS011;8524;57.650;11.926;2022-09-09T09:31:03;4.47;;;2.03;;
16813;SDS011;8524;57.650;11.926;2022-09-09T09:33:33;4.73;;;1.87;;
16813;SDS011;8524;57.650;11.926;2022-09-09T09:36:06;2.60;;;2.00;;
16813;SDS011;8524;57.650;11.926;2022-09-09T09:38:34;2.93;;;2.20;;
16813;SDS011;8524;57.650;11.926;2022-09-09T09:41:03;1.93;;;1.73;;
16813;SDS011;8524;57.650;11.926;2022-09-09T09:43:31;4.30;;;1.97;;
16813;SDS011;8524;57.650;11.926;2022-09-09T09:46:00;2.30;;;1.83;;
16813;SDS011;8524;57.650;11.926;2022-09-09T09:48:29;5.20;;;1.70;;
16813;SDS011;8524;57.650;11.926;2022-09-09T09:50:58;2.90;;;1.87;;
16813;SDS011;8524;57.650;11.926;2022-09-09T09:53:28;3.80;;;1.83;;
16813;SDS011;8524;57.650;11.926;2022-09-09T09:55:58;3.70;;;2.10;;
16813;SDS011;8524;57.650;11.926;2022-09-09T09:58:29;3.40;;;2.10;;
16813;SDS011;8524;57.650;11.926;2022-09-09T10:00:59;4.03;;;2.00;;
16813;SDS011;8524;57.650;11.926;2022-09-09T10:03:28;4.33;;;2.23;;
16813;SDS011;8524;57.650;11.926;2022-09-09T10:05:57;3.20;;;2.00;;
16813;SDS011;8524;57.650;11.926;2022-09-09T10:08:24;4.20;;;2.10;;
16813;SDS011;8524;57.650;11.926;2022-09-09T10:10:56;3.17;;;2.10;;
16813;SDS011;8524;57.650;11.926;2022-09-09T10:13:35;2.70;;;1.90;;
16813;SDS011;8524;57.650;11.926;2022-09-09T10:16:16;3.93;;;2.30;;
16813;SDS011;8524;57.650;11.926;2022-09-09T10:18:53;2.60;;;2.17;;
16813;SDS011;8524;57.650;11.926;2022-09-09T10:21:31;2.63;;;2.07;;
16813;SDS011;8524;57.650;11.926;2022-09-09T10:24:22;2.97;;;2.33;;
16813;SDS011;8524;57.650;11.926;2022-09-09T10:27:11;3.53;;;2.50;;
16813;SDS011;8524;57.650;11.926;2022-09-09T10:29:50;3.73;;;2.40;;
16813;SDS011;8524;57.650;11.926;2022-09-09T10:32:36;3.97;;;2.50;;
16813;SDS011;8524;57.650;11.926;2022-09-09T10:35:11;4.30;;;2.50;;
16813;SDS011;8524;57.650;11.926;2022-09-09T10:37:51;4.07;;;2.53;;
16813;SDS011;8524;57.650;11.926;2022-09-09T10:40:34;2.50;;;2.10;;
16813;SDS011;8524;57.650;11.926;2022-09-09T10:43:11;3.00;;;2.20;;
16813;SDS011;8524;57.650;11.926;2022-09-09T10:45:53;3.00;;;2.50;;
16813;SDS011;8524;57.650;11.926;2022-09-09T10:48:31;2.67;;;2.30;;
16813;SDS011;8524;57.650;11.926;2022-09-09T10:51:14;4.20;;;2.80;;
16813;SDS011;8524;57.650;11.926;2022-09-09T10:53:51;4.13;;;2.40;;
16813;SDS011;8524;57.650;11.926;2022-09-09T10:56:30;3.33;;;2.30;;
16813;SDS011;8524;57.650;11.926;2022-09-09T10:58:59;5.90;;;2.97;;
16813;SDS011;8524;57.650;11.926;2022-09-09T11:01:33;3.70;;;2.47;;
16813;SDS011;8524;57.650;11.926;2022-09-09T11:04:05;3.97;;;2.67;;
16813;SDS011;8524;57.650;11.926;2022-09-09T11:06:39;6.30;;;2.80;;
16813;SDS011;8524;57.650;11.926;2022-09-09T11:09:09;4.37;;;2.27;;
16813;SDS011;8524;57.650;11.926;2022-09-09T11:11:45;4.23;;;2.30;;
16813;SDS011;8524;57.650;11.926;2022-09-09T11:14:18;2.93;;;2.57;;
16813;SDS011;8524;57.650;11.926;2022-09-09T11:16:52;3.83;;;2.73;;
16813;SDS011;8524;57.650;11.926;2022-09-09T11:19:26;8.10;;;3.03;;
16813;SDS011;8524;57.650;11.926;2022-09-09T11:21:59;5.90;;;3.53;;
16813;SDS011;8524;57.650;11.926;2022-09-09T11:24:29;4.07;;;2.93;;
16813;SDS011;8524;57.650;11.926;2022-09-09T11:27:07;3.70;;;2.47;;
16813;SDS011;8524;57.650;11.926;2022-09-09T11:29:53;4.03;;;2.80;;
16813;SDS011;8524;57.650;11.926;2022-09-09T11:35:56;5.40;;;2.67;;
16813;SDS011;8524;57.650;11.926;2022-09-09T11:38:35;4.43;;;2.77;;
16813;SDS011;8524;57.650;11.926;2022-09-09T11:41:07;5.20;;;3.13;;
16813;SDS011;8524;57.650;11.926;2022-09-09T11:43:38;5.60;;;4.07;;
16813;SDS011;8524;57.650;11.926;2022-09-09T11:46:10;4.10;;;3.13;;
16813;SDS011;8524;57.650;11.926;2022-09-09T11:48:41;4.53;;;2.93;;
16813;SDS011;8524;57.650;11.926;2022-09-09T11:51:12;4.33;;;3.23;;
16813;SDS011;8524;57.650;11.926;2022-09-09T11:53:52;4.30;;;3.90;;
16813;SDS011;8524;57.650;11.926;2022-09-09T11:56:24;5.80;;;5.10;;
16813;SDS011;8524;57.650;11.926;2022-09-09T11:58:55;3.87;;;3.03;;
16813;SDS011;8524;57.650;11.926;2022-09-09T12:01:39;5.45;;;3.30;;
16813;SDS011;8524;57.650;11.926;2022-09-09T12:06:59;4.50;;;4.00;;
16813;SDS011;8524;57.650;11.926;2022-09-09T12:09:41;5.00;;;4.50;;
16813;SDS011;8524;57.650;11.926;2022-09-09T12:12:26;5.47;;;3.20;;
16813;SDS011;8524;57.650;11.926;2022-09-09T12:15:16;4.70;;;3.33;;
16813;SDS011;8524;57.650;11.926;2022-09-09T12:18:02;4.27;;;3.10;;
16813;SDS011;8524;57.650;11.926;2022-09-09T12:20:34;6.30;;;3.10;;
16813;SDS011;8524;57.650;11.926;2022-09-09T12:26:17;5.23;;;3.33;;
16813;SDS011;8524;57.650;11.926;2022-09-09T12:28:54;5.50;;;2.93;;
16813;SDS011;8524;57.650;11.926;2022-09-09T12:31:33;3.67;;;3.17;;
16813;SDS011;8524;57.650;11.926;2022-09-09T12:34:09;4.40;;;3.10;;
16813;SDS011;8524;57.650;11.926;2022-09-09T12:36:38;3.53;;;2.80;;
16813;SDS011;8524;57.650;11.926;2022-09-09T12:39:27;3.40;;;2.80;;
16813;SDS011;8524;57.650;11.926;2022-09-09T12:41:58;3.60;;;2.83;;
16813;SDS011;8524;57.650;11.926;2022-09-09T12:44:26;3.83;;;3.17;;
16813;SDS011;8524;57.650;11.926;2022-09-09T12:46:54;4.10;;;2.90;;
16813;SDS011;8524;57.650;11.926;2022-09-09T12:49:26;4.63;;;2.93;;
16813;SDS011;8524;57.650;11.926;2022-09-09T12:51:59;4.40;;;2.80;;
16813;SDS011;8524;57.650;11.926;2022-09-09T12:54:32;4.90;;;2.80;;
16813;SDS011;8524;57.650;11.926;2022-09-09T12:57:01;4.60;;;2.70;;
16813;SDS011;8524;57.650;11.926;2022-09-09T12:59:34;2.83;;;2.53;;
16813;SDS011;8524;57.650;11.926;2022-09-09T13:02:02;3.93;;;2.90;;
16813;SDS011;8524;57.650;11.926;2022-09-09T13:04:37;4.33;;;2.90;;
16813;SDS011;8524;57.650;11.926;2022-09-09T13:07:07;3.57;;;2.77;;
16813;SDS011;8524;57.650;11.926;2022-09-09T13:09:37;5.73;;;3.20;;
16813;SDS011;8524;57.650;11.926;2022-09-09T13:12:05;4.30;;;2.83;;
16813;SDS011;8524;57.650;11.926;2022-09-09T13:14:35;3.43;;;3.10;;
16813;SDS011;8524;57.650;11.926;2022-09-09T13:17:03;4.43;;;2.90;;
16813;SDS011;8524;57.650;11.926;2022-09-09T13:19:34;3.83;;;2.93;;
16813;SDS011;8524;57.650;11.926;2022-09-09T13:22:11;5.10;;;3.10;;
16813;SDS011;8524;57.650;11.926;2022-09-09T13:24:40;3.83;;;3.23;;
16813;SDS011;8524;57.650;11.926;2022-09-09T13:27:20;4.67;;;3.10;;
16813;SDS011;8524;57.650;11.926;2022-09-09T13:29:53;4.27;;;2.70;;
16813;SDS011;8524;57.650;11.926;2022-09-09T13:32:21;4.30;;;3.00;;
16813;SDS011;8524;57.650;11.926;2022-09-09T13:34:52;4.23;;;3.13;;
16813;SDS011;8524;57.650;11.926;2022-09-09T13:37:22;4.13;;;2.90;;
16813;SDS011;8524;57.650;11.926;2022-09-09T13:39:54;4.97;;;2.87;;
16813;SDS011;8524;57.650;11.926;2022-09-09T13:42:22;3.70;;;3.00;;
16813;SDS011;8524;57.650;11.926;2022-09-09T13:44:51;3.97;;;2.87;;
16813;SDS011;8524;57.650;11.926;2022-09-09T13:47:19;4.37;;;2.90;;
16813;SDS011;8524;57.650;11.926;2022-09-09T13:49:48;4.53;;;2.87;;
16813;SDS011;8524;57.650;11.926;2022-09-09T13:52:16;3.97;;;3.10;;
16813;SDS011;8524;57.650;11.926;2022-09-09T13:54:46;3.33;;;2.90;;
16813;SDS011;8524;57.650;11.926;2022-09-09T13:57:17;3.13;;;2.83;;
16813;SDS011;8524;57.650;11.926;2022-09-09T13:59:46;2.90;;;2.60;;
16813;SDS011;8524;57.650;11.926;2022-09-09T14:02:14;3.03;;;2.40;;
16813;SDS011;8524;57.650;11.926;2022-09-09T14:04:41;4.63;;;2.83;;
16813;SDS011;8524;57.650;11.926;2022-09-09T14:07:09;3.87;;;2.83;;
16813;SDS011;8524;57.650;11.926;2022-09-09T14:09:38;3.83;;;2.93;;
16813;SDS011;8524;57.650;11.926;2022-09-09T14:12:08;3.30;;;2.87;;
16813;SDS011;8524;57.650;11.926;2022-09-09T14:14:37;4.57;;;2.90;;
16813;SDS011;8524;57.650;11.926;2022-09-09T14:17:04;4.67;;;2.90;;
16813;SDS011;8524;57.650;11.926;2022-09-09T14:19:31;2.93;;;2.60;;
16813;SDS011;8524;57.650;11.926;2022-09-09T14:21:58;2.90;;;2.70;;
16813;SDS011;8524;57.650;11.926;2022-09-09T14:24:25;3.17;;;2.50;;
16813;SDS011;8524;57.650;11.926;2022-09-09T14:26:52;3.07;;;2.77;;
16813;SDS011;8524;57.650;11.926;2022-09-09T14:29:19;4.00;;;3.63;;
16813;SDS011;8524;57.650;11.926;2022-09-09T14:31:47;4.33;;;3.60;;
16813;SDS011;8524;57.650;11.926;2022-09-09T14:34:14;3.70;;;2.60;;
16813;SDS011;8524;57.650;11.926;2022-09-09T14:36:41;2.57;;;2.27;;
16813;SDS011;8524;57.650;11.926;2022-09-09T14:39:09;2.30;;;2.10;;
16813;SDS011;8524;57.650;11.926;2022-09-09T14:41:36;2.93;;;2.70;;
16813;SDS011;8524;57.650;11.926;2022-09-09T14:44:03;3.20;;;2.33;;
16813;SDS011;8524;57.650;11.926;2022-09-09T14:46:30;2.57;;;2.20;;
16813;SDS011;8524;57.650;11.926;2022-09-09T14:48:59;2.80;;;2.60;;
16813;SDS011;8524;57.650;11.926;2022-09-09T14:51:26;2.13;;;1.93;;
16813;SDS011;8524;57.650;11.926;2022-09-09T14:53:54;2.67;;;2.00;;
16813;SDS011;8524;57.650;11.926;2022-09-09T14:56:23;2.73;;;2.27;;
16813;SDS011;8524;57.650;11.926;2022-09-09T14:58:52;2.70;;;2.30;;
16813;SDS011;8524;57.650;11.926;2022-09-09T15:01:21;2.47;;;2.27;;
16813;SDS011;8524;57.650;11.926;2022-09-09T15:03:49;2.30;;;2.10;;
16813;SDS011;8524;57.650;11.926;2022-09-09T15:06:18;2.37;;;2.00;;
16813;SDS011;8524;57.650;11.926;2022-09-09T15:08:47;2.67;;;1.83;;
16813;SDS011;8524;57.650;11.926;2022-09-09T15:11:16;2.13;;;1.93;;
16813;SDS011;8524;57.650;11.926;2022-09-09T15:13:43;3.57;;;2.20;;
16813;SDS011;8524;57.650;11.926;2022-09-09T15:16:11;2.07;;;1.87;;
16813;SDS011;8524;57.650;11.926;2022-09-09T15:18:39;2.43;;;1.90;;
16813;SDS011;8524;57.650;11.926;2022-09-09T15:21:07;3.13;;;2.07;;
16813;SDS011;8524;57.650;11.926;2022-09-09T15:23:36;2.20;;;2.00;;
16813;SDS011;8524;57.650;11.926;2022-09-09T15:26:03;1.80;;;1.70;;
16813;SDS011;8524;57.650;11.926;2022-09-09T15:28:31;1.60;;;1.50;;